Time;durP1;ratioP1;P1;durP2;ratioP2;P2;SDS_P1;SDS_P2;PMS_P1;PMS_P2;Temp;Humidity;BMP_temperature;BMP_pressure;BME280_temperature;BME280_humidity;BME280_pressure;Samples;Min_cycle;Max_cycle;Signal;HPM_P1;HPM_P2
2024/02/04 00:02:00;;;;;;;49.63;13.93;;;10.00;99.90;;;;;;10537833;28;20074;-62
2024/02/04 00:07:02;;;;;;;41.65;12.68;;;9.90;99.90;;;;;;10537103;28;20088;-62
2024/02/04 00:12:06;;;;;;;45.47;9.77;;;9.90;99.90;;;;;;10536464;28;20502;-61
2024/02/04 00:17:09;;;;;;;43.25;13.93;;;9.90;99.90;;;;;;10536710;28;20127;-61
2024/02/04 00:22:11;;;;;;;39.73;10.77;;;9.90;99.90;;;;;;10538253;28;21082;-62
2024/02/04 00:27:14;;;;;;;57.58;15.93;;;9.90;99.90;;;;;;10537500;28;20846;-64
2024/02/04 00:32:16;;;;;;;46.40;12.70;;;10.00;99.90;;;;;;10550732;28;20411;-61
2024/02/04 00:37:18;;;;;;;42.70;11.13;;;9.90;99.90;;;;;;10555154;28;20052;-62
2024/02/04 00:42:22;;;;;;;51.75;12.55;;;9.90;99.90;;;;;;10548042;27;20044;-62
2024/02/04 00:47:25;;;;;;;45.65;13.05;;;9.80;99.90;;;;;;10542873;28;20036;-62
2024/02/04 00:52:28;;;;;;;51.55;15.13;;;9.80;99.90;;;;;;10541551;28;20502;-63
2024/02/04 00:57:31;;;;;;;42.17;14.07;;;9.90;99.90;;;;;;10540655;28;20051;-63
2024/02/04 01:02:33;;;;;;;;;;;9.90;99.90;;;;;;10543731;27;20071;-62
2024/02/04 01:07:35;;;;;;;44.15;13.98;;;9.90;99.90;;;;;;10543805;27;20366;-62
2024/02/04 01:12:38;;;;;;;55.65;14.07;;;9.80;99.90;;;;;;10543139;27;20147;-62
2024/02/04 01:17:40;;;;;;;60.08;13.90;;;9.70;99.90;;;;;;10542575;27;20450;-62
2024/02/04 01:22:42;;;;;;;45.92;13.95;;;9.80;99.90;;;;;;10542150;27;20076;-61
2024/02/04 01:27:46;;;;;;;49.33;13.27;;;9.70;99.90;;;;;;10542365;28;20110;-61
2024/02/04 01:32:48;;;;;;;35.92;10.65;;;9.70;99.90;;;;;;10541879;27;20043;-62
2024/02/04 01:37:50;;;;;;;38.08;11.27;;;9.80;99.90;;;;;;10541559;27;20067;-61
2024/02/04 01:42:56;;;;;;;32.15;8.35;;;9.80;99.90;;;;;;10542403;28;20980;-62
2024/02/04 01:47:58;;;;;;;26.80;7.45;;;9.80;99.90;;;;;;10540343;28;20036;-61
2024/02/04 01:53:00;;;;;;;32.15;9.18;;;10.00;99.90;;;;;;10538919;28;20056;-61
2024/02/04 01:58:04;;;;;;;29.90;9.07;;;10.00;99.90;;;;;;10539422;27;20055;-61
2024/02/04 02:03:08;;;;;;;24.23;7.45;;;9.90;99.90;;;;;;10539950;27;20124;-61
2024/02/04 02:08:11;;;;;;;36.55;7.60;;;10.10;99.90;;;;;;10540770;28;20078;-64
2024/02/04 02:13:18;;;;;;;29.05;8.80;;;10.00;99.90;;;;;;10538703;28;20055;-61
2024/02/04 02:18:24;;;;;;;24.48;9.07;;;9.90;99.90;;;;;;10539375;28;20457;-61
2024/02/04 02:23:35;;;;;;;31.92;10.73;;;9.90;99.90;;;;;;10522443;28;20124;-62
2024/02/04 02:28:38;;;;;;;32.42;9.40;;;9.70;99.90;;;;;;10540608;27;20993;-61
2024/02/04 02:33:41;;;;;;;39.08;9.50;;;9.60;99.90;;;;;;10537232;28;20552;-64
2024/02/04 02:38:51;;;;;;;40.03;8.93;;;9.90;99.90;;;;;;10544935;28;20481;-62
2024/02/04 02:43:56;;;;;;;24.33;7.70;;;9.80;99.90;;;;;;10545156;28;20051;-61
2024/02/04 02:48:59;;;;;;;44.42;8.15;;;9.90;99.90;;;;;;10540511;28;20086;-61
2024/02/04 02:54:01;;;;;;;38.90;8.35;;;9.80;99.90;;;;;;10538068;28;20108;-61
2024/02/04 02:59:04;;;;;;;31.38;8.75;;;9.90;99.90;;;;;;10538242;28;20047;-61
2024/02/04 03:04:07;;;;;;;33.83;7.68;;;9.80;99.90;;;;;;10539765;28;20066;-62
2024/02/04 03:09:10;;;;;;;29.17;9.00;;;9.80;99.90;;;;;;10539342;28;20133;-62
2024/02/04 03:14:14;;;;;;;27.45;9.57;;;9.90;99.90;;;;;;10539823;28;20067;-61
2024/02/04 03:19:17;;;;;;;38.17;9.60;;;9.80;99.90;;;;;;10540325;28;20225;-62
2024/02/04 03:24:19;;;;;;;35.53;7.78;;;9.80;99.90;;;;;;10540030;28;20055;-63
2024/02/04 03:29:22;;;;;;;21.13;7.00;;;9.70;99.90;;;;;;10537854;27;20036;-62
2024/02/04 03:34:24;;;;;;;28.23;9.85;;;9.80;99.90;;;;;;10537005;28;20044;-62
2024/02/04 03:39:26;;;;;;;40.03;7.82;;;9.60;99.90;;;;;;10532033;28;20138;-62
2024/02/04 03:44:30;;;;;;;38.77;8.77;;;9.60;99.90;;;;;;10538929;28;20071;-62
2024/02/04 03:49:31;;;;;;;38.83;10.73;;;9.50;99.90;;;;;;10536420;28;20059;-62
2024/02/04 03:54:33;;;;;;;38.03;9.27;;;9.40;99.90;;;;;;10535963;28;20940;-61
2024/02/04 04:15:35;;;;;;;36.00;10.52;;;9.70;99.90;;;;;;10659948;27;20141;-62
2024/02/04 04:20:37;;;;;;;34.25;8.88;;;9.60;99.90;;;;;;10662337;27;20050;-60
2024/02/04 04:25:39;;;;;;;44.05;11.60;;;9.50;99.90;;;;;;10665310;27;20084;-61
2024/02/04 04:30:43;;;;;;;38.55;10.02;;;9.40;99.90;;;;;;10666949;27;20742;-63
2024/02/04 04:35:45;;;;;;;38.15;7.95;;;9.40;99.90;;;;;;10666045;27;20050;-62
2024/02/04 04:40:47;;;;;;;41.08;8.10;;;9.50;99.90;;;;;;10664184;27;20089;-62
2024/02/04 04:45:50;;;;;;;33.15;6.47;;;9.60;99.90;;;;;;10666553;27;23229;-61
2024/02/04 04:50:52;;;;;;;41.70;8.25;;;9.90;99.90;;;;;;10666146;27;20513;-62
2024/02/04 04:55:54;;;;;;;44.65;8.90;;;9.70;99.90;;;;;;10663316;27;20124;-61
2024/02/04 05:00:58;;;;;;;30.05;8.23;;;9.30;99.90;;;;;;10661962;27;20049;-63
2024/02/04 05:06:00;;;;;;;34.10;8.18;;;9.30;99.90;;;;;;10660087;27;20489;-62
2024/02/04 05:11:02;;;;;;;43.78;10.27;;;9.20;99.90;;;;;;10661075;27;20678;-62
2024/02/04 05:16:07;;;;;;;35.33;8.40;;;9.50;99.90;;;;;;10660883;27;20050;-63
2024/02/04 05:21:10;;;;;;;25.67;6.25;;;9.50;99.90;;;;;;10657287;27;20046;-62
2024/02/04 05:26:12;;;;;;;29.85;6.13;;;9.70;99.90;;;;;;10633452;27;20081;-61
2024/02/04 05:31:16;;;;;;;44.70;8.52;;;9.50;99.90;;;;;;10636082;27;20070;-62
2024/02/04 05:36:18;;;;;;;28.25;6.03;;;9.50;99.90;;;;;;10630754;27;20047;-62
2024/02/04 05:41:19;;;;;;;22.02;5.20;;;9.40;99.90;;;;;;10633808;27;23103;-62
2024/02/04 05:46:23;;;;;;;12.43;2.60;;;9.40;99.90;;;;;;10633738;27;20120;-62
2024/02/04 05:51:27;;;;;;;34.40;9.65;;;9.80;99.90;;;;;;10637535;27;20054;-61
2024/02/04 05:56:29;;;;;;;33.72;8.35;;;9.50;99.90;;;;;;10635697;27;20078;-63
2024/02/04 06:01:32;;;;;;;34.00;8.77;;;9.50;99.90;;;;;;10636227;27;20043;-60
2024/02/04 06:06:35;;;;;;;39.00;10.45;;;9.70;99.90;;;;;;10633028;27;20061;-63
2024/02/04 06:11:37;;;;;;;39.38;9.38;;;9.60;99.90;;;;;;10632905;27;20742;-60
2024/02/04 06:16:40;;;;;;;34.80;9.15;;;9.40;99.90;;;;;;10638963;27;20061;-62
2024/02/04 06:21:42;;;;;;;41.88;9.00;;;9.50;99.90;;;;;;10631459;27;20156;-61
2024/02/04 06:26:44;;;;;;;33.97;7.90;;;9.60;99.90;;;;;;10627628;27;20061;-62
2024/02/04 06:31:47;;;;;;;41.97;8.55;;;9.60;99.90;;;;;;10630710;27;20078;-63
2024/02/04 06:36:49;;;;;;;48.80;10.20;;;9.60;99.90;;;;;;10628804;27;20095;-61
2024/02/04 06:41:52;;;;;;;66.50;13.18;;;9.50;99.90;;;;;;10634128;27;20057;-61
2024/02/04 06:46:56;;;;;;;48.67;10.07;;;9.30;99.90;;;;;;10629794;27;20051;-62
2024/02/04 06:51:58;;;;;;;34.55;8.63;;;9.40;99.90;;;;;;10632883;27;20072;-62
2024/02/04 06:57:00;;;;;;;43.33;8.70;;;9.40;99.90;;;;;;10628928;27;20047;-62
2024/02/04 07:02:04;;;;;;;48.65;9.93;;;9.50;99.90;;;;;;10628339;27;20701;-62
2024/02/04 07:07:05;;;;;;;33.83;7.85;;;9.50;99.90;;;;;;10620994;27;20096;-62
2024/02/04 07:12:08;;;;;;;36.97;8.73;;;9.60;99.90;;;;;;10623434;27;20089;-62
2024/02/04 07:17:11;;;;;;;47.83;11.40;;;9.50;99.90;;;;;;10622380;27;20058;-62
2024/02/04 07:22:13;;;;;;;33.30;7.43;;;9.50;99.90;;;;;;10614730;27;20043;-62
2024/02/04 07:27:15;;;;;;;39.28;8.85;;;9.70;99.90;;;;;;10620988;27;20050;-62
2024/02/04 07:32:19;;;;;;;39.45;7.80;;;9.70;99.90;;;;;;10619969;27;20078;-61
2024/02/04 07:37:21;;;;;;;35.83;8.05;;;9.60;99.90;;;;;;10621807;27;20047;-62
2024/02/04 07:42:23;;;;;;;23.95;5.05;;;9.60;99.90;;;;;;10618674;27;20046;-62
2024/02/04 07:47:27;;;;;;;14.32;4.88;;;9.50;99.90;;;;;;10621590;27;20078;-63
2024/02/04 07:52:28;;;;;;;;;;;9.90;99.90;;;;;;10621171;27;20753;-62
2024/02/04 07:57:32;;;;;;;24.83;6.13;;;9.60;99.90;;;;;;10613777;27;19927;-63
2024/02/04 08:02:37;;;;;;;27.75;6.05;;;9.70;99.90;;;;;;10616415;27;20055;-61
2024/02/04 08:07:39;;;;;;;18.98;4.47;;;9.60;99.90;;;;;;10614627;27;20047;-61
2024/02/04 08:12:41;;;;;;;26.15;4.28;;;9.80;99.90;;;;;;10622551;27;20157;-61
2024/02/04 08:17:44;;;;;;;27.85;5.00;;;9.80;99.90;;;;;;10607114;27;20058;-62
2024/02/04 08:22:46;;;;;;;22.10;4.72;;;9.70;99.90;;;;;;10618445;27;20445;-62
2024/02/04 08:27:48;;;;;;;19.25;4.28;;;9.90;99.90;;;;;;10614415;27;20712;-63
2024/02/04 08:32:52;;;;;;;20.43;3.50;;;9.70;99.90;;;;;;10615462;27;20046;-62
2024/02/04 08:37:54;;;;;;;19.42;3.67;;;10.00;99.90;;;;;;10617326;27;20488;-62
2024/02/04 08:42:56;;;;;;;16.30;3.63;;;9.90;99.90;;;;;;10617207;27;20927;-62
2024/02/04 08:48:00;;;;;;;14.00;2.80;;;10.00;99.90;;;;;;10617801;27;20051;-62
2024/02/04 08:53:02;;;;;;;9.45;2.90;;;10.00;99.90;;;;;;10617205;27;20781;-64
2024/02/04 08:58:04;;;;;;;17.15;3.80;;;10.10;99.90;;;;;;10623383;27;20054;-62
2024/02/04 09:03:07;;;;;;;12.60;3.15;;;10.10;99.90;;;;;;10625326;27;20466;-62
2024/02/04 09:08:10;;;;;;;10.27;2.70;;;10.20;99.90;;;;;;10625196;27;20799;-61
2024/02/04 09:13:12;;;;;;;10.73;2.55;;;10.20;99.90;;;;;;10636230;27;20046;-62
2024/02/04 09:18:16;;;;;;;10.82;2.63;;;10.20;99.90;;;;;;10632205;27;20755;-63
2024/02/04 09:23:18;;;;;;;22.00;4.10;;;10.00;99.90;;;;;;10627269;27;20103;-61
2024/02/04 09:28:20;;;;;;;15.80;2.60;;;9.80;99.90;;;;;;10629280;27;20050;-61
2024/02/04 09:33:23;;;;;;;19.63;3.92;;;10.10;99.90;;;;;;10632611;27;20839;-61
2024/02/04 09:38:25;;;;;;;18.02;3.85;;;10.10;99.90;;;;;;10621343;27;20482;-61
2024/02/04 09:43:28;;;;;;;33.63;4.63;;;9.90;99.90;;;;;;10619983;27;21375;-61
2024/02/04 09:48:33;;;;;;;16.33;3.20;;;10.10;99.90;;;;;;10630182;27;20165;-58
2024/02/04 09:53:37;;;;;;;18.30;2.80;;;10.00;99.90;;;;;;10623469;27;20623;-61
2024/02/04 09:58:39;;;;;;;27.73;4.18;;;10.20;99.90;;;;;;10622626;27;20569;-60
2024/02/04 10:03:43;;;;;;;17.50;3.03;;;9.80;99.90;;;;;;10624372;27;20502;-59
2024/02/04 10:08:46;;;;;;;17.52;3.28;;;10.00;99.90;;;;;;10624142;27;20910;-61
2024/02/04 10:13:50;;;;;;;19.60;4.50;;;10.20;99.90;;;;;;10632286;27;20055;-60
2024/02/04 10:18:56;;;;;;;27.08;3.50;;;10.00;99.90;;;;;;10628606;27;20085;-61
2024/02/04 10:23:58;;;;;;;23.45;3.65;;;10.00;99.90;;;;;;10627846;27;20908;-60
2024/02/04 10:29:00;;;;;;;17.70;4.57;;;10.00;99.90;;;;;;10620130;27;20123;-59
2024/02/04 10:34:06;;;;;;;26.30;3.75;;;10.10;99.90;;;;;;10626248;27;21261;-60
2024/02/04 10:39:09;;;;;;;23.98;3.40;;;10.10;99.90;;;;;;10626803;27;20070;-60
2024/02/04 10:44:15;;;;;;;35.73;4.93;;;10.10;99.90;;;;;;10628222;27;20042;-60
2024/02/04 10:49:20;;;;;;;36.17;3.83;;;9.90;99.90;;;;;;10619176;27;20046;-60
2024/02/04 10:54:27;;;;;;;22.27;3.63;;;9.90;99.90;;;;;;10624614;27;20072;-60
2024/02/04 10:59:32;;;;;;;18.30;3.92;;;10.00;99.90;;;;;;10623795;27;20611;-59
2024/02/04 11:04:37;;;;;;;16.63;3.83;;;10.10;99.90;;;;;;10623784;27;20053;-60
2024/02/04 11:09:40;;;;;;;30.30;4.13;;;10.10;99.90;;;;;;10625644;27;20137;-61
2024/02/04 11:14:45;;;;;;;20.48;3.80;;;10.00;99.90;;;;;;10623156;27;20210;-59
2024/02/04 11:20:07;;;;;;;20.80;3.95;;;10.10;99.90;;;;;;10629459;27;20097;-59
2024/02/04 11:25:27;;;;;;;19.83;4.15;;;10.20;99.90;;;;;;10623426;27;20063;-59
2024/02/04 11:30:33;;;;;;;18.75;3.05;;;10.30;99.90;;;;;;10628019;27;20509;-59
2024/02/04 11:35:37;;;;;;;16.23;4.68;;;10.50;99.90;;;;;;10640588;27;20058;-58
2024/02/04 11:40:40;;;;;;;20.25;3.33;;;10.50;99.90;;;;;;10636799;27;20081;-58
2024/02/04 11:45:42;;;;;;;16.90;3.53;;;10.50;99.90;;;;;;10629564;27;20258;-59
2024/02/04 11:50:53;;;;;;;43.03;5.03;;;10.50;99.90;;;;;;10629925;27;20122;-57
2024/02/04 11:55:55;;;;;;;20.63;3.95;;;10.50;99.90;;;;;;10624372;27;20133;-59
2024/02/04 12:00:58;;;;;;;19.42;4.15;;;10.60;99.90;;;;;;10623443;27;20072;-61
2024/02/04 12:06:02;;;;;;;33.72;7.07;;;10.60;99.90;;;;;;10627673;27;20624;-62
2024/02/04 12:11:04;;;;;;;26.73;5.30;;;10.50;99.90;;;;;;10633983;27;20993;-61
2024/02/04 12:16:09;;;;;;;32.80;5.30;;;10.40;99.90;;;;;;10626939;27;20046;-60
2024/02/04 12:21:13;;;;;;;29.67;5.32;;;10.50;99.90;;;;;;10627648;27;20174;-60
2024/02/04 12:26:15;;;;;;;24.63;4.18;;;10.60;99.90;;;;;;10626612;27;20083;-60
2024/02/04 12:31:20;;;;;;;26.43;5.37;;;10.70;99.90;;;;;;10629268;27;20080;-59
2024/02/04 12:36:25;;;;;;;42.03;6.53;;;11.00;99.90;;;;;;10636490;27;20046;-62
2024/02/04 12:41:27;;;;;;;31.38;5.95;;;10.70;99.90;;;;;;10631560;27;20623;-62
2024/02/04 12:46:30;;;;;;;34.47;6.85;;;10.80;99.90;;;;;;10637787;27;20057;-60
2024/02/04 12:51:34;;;;;;;32.58;5.32;;;11.10;99.90;;;;;;10646680;27;20073;-59
2024/02/04 12:56:47;;;;;;;37.95;7.22;;;10.70;99.90;;;;;;10651137;27;20312;-60
2024/02/04 13:01:54;;;;;;;27.73;4.82;;;11.00;99.90;;;;;;10636897;27;20898;-61
2024/02/04 13:06:57;;;;;;;29.33;4.50;;;10.90;99.90;;;;;;10630503;27;20057;-64
2024/02/04 13:12:04;;;;;;;41.03;5.80;;;10.70;99.90;;;;;;10634110;27;20137;-59
2024/02/04 13:17:07;;;;;;;30.60;4.78;;;10.80;99.90;;;;;;10627319;27;20795;-61
2024/02/04 13:22:10;;;;;;;30.00;5.07;;;10.80;99.90;;;;;;10629836;27;20165;-58
2024/02/04 13:27:13;;;;;;;37.55;5.07;;;10.90;99.90;;;;;;10633150;27;20051;-60
2024/02/04 13:32:15;;;;;;;31.97;5.73;;;10.90;99.90;;;;;;10627058;27;20634;-58
2024/02/04 13:37:18;;;;;;;36.05;6.18;;;10.70;99.90;;;;;;10624314;27;20054;-58
2024/02/04 13:42:20;;;;;;;51.15;6.63;;;10.80;99.90;;;;;;10629959;27;20072;-60
2024/02/04 13:47:22;;;;;;;41.60;6.83;;;10.70;99.90;;;;;;10623722;27;20114;-60
2024/02/04 13:52:26;;;;;;;30.52;5.88;;;10.80;99.90;;;;;;10626360;27;20187;-60
2024/02/04 13:57:27;;;;;;;33.65;5.97;;;10.70;99.90;;;;;;10634740;27;20141;-58
2024/02/04 14:02:30;;;;;;;35.50;4.70;;;10.50;99.90;;;;;;10626955;27;20046;-60
2024/02/04 14:07:33;;;;;;;29.52;4.57;;;10.60;99.90;;;;;;10628666;27;20051;-60
2024/02/04 14:12:36;;;;;;;46.72;7.07;;;10.90;99.90;;;;;;10636401;27;20088;-61
2024/02/04 14:17:38;;;;;;;45.17;7.27;;;10.40;99.90;;;;;;10624688;27;20043;-61
2024/02/04 14:22:42;;;;;;;44.57;6.43;;;10.30;99.90;;;;;;10620995;27;20136;-60
2024/02/04 14:27:44;;;;;;;36.28;6.07;;;10.40;99.90;;;;;;10613329;27;20148;-60
2024/02/04 14:32:46;;;;;;;49.70;7.28;;;10.50;99.90;;;;;;10625798;27;20498;-61
2024/02/04 14:37:50;;;;;;;55.53;8.30;;;10.20;99.90;;;;;;10625465;27;20145;-59
2024/02/04 14:42:52;;;;;;;53.80;7.75;;;10.20;99.90;;;;;;10619327;27;20051;-60
2024/02/04 14:47:54;;;;;;;58.10;8.57;;;10.20;99.90;;;;;;10627756;27;20061;-61
2024/02/04 14:52:57;;;;;;;52.53;7.35;;;10.20;99.90;;;;;;10618596;27;20054;-61
2024/02/04 14:57:59;;;;;;;58.45;8.27;;;10.20;99.90;;;;;;10624921;27;20053;-58
2024/02/04 15:03:01;;;;;;;53.50;7.53;;;10.50;99.90;;;;;;10624717;27;20657;-62
2024/02/04 15:08:06;;;;;;;62.83;9.90;;;10.20;99.90;;;;;;10623946;27;20054;-62
2024/02/04 15:13:08;;;;;;;64.90;8.40;;;10.20;99.90;;;;;;10620689;27;20078;-61
2024/02/04 15:18:12;;;;;;;56.00;8.50;;;10.20;99.90;;;;;;10623117;27;20088;-61
2024/02/04 15:23:16;;;;;;;66.22;9.65;;;10.20;99.90;;;;;;10625441;27;20465;-60
2024/02/04 15:28:18;;;;;;;65.43;9.90;;;10.20;99.90;;;;;;10622568;27;20075;-60
2024/02/04 15:33:21;;;;;;;67.00;12.63;;;10.20;99.90;;;;;;10631206;27;20075;-60
2024/02/04 15:38:24;;;;;;;74.78;10.40;;;10.00;99.90;;;;;;10626637;27;20058;-61
2024/02/04 15:43:26;;;;;;;50.47;7.93;;;10.10;99.90;;;;;;10625794;27;20116;-59
2024/02/04 15:48:30;;;;;;;66.55;10.63;;;10.00;99.90;;;;;;10618872;27;20050;-61
2024/02/04 15:53:34;;;;;;;84.00;16.73;;;9.90;99.90;;;;;;10620482;27;20074;-61
2024/02/04 15:58:38;;;;;;;66.47;10.70;;;9.80;99.90;;;;;;10622582;27;20851;-60
2024/02/04 16:03:41;;;;;;;75.55;12.13;;;9.90;99.90;;;;;;10616706;27;20102;-59
2024/02/04 16:08:47;;;;;;;49.72;8.98;;;10.00;99.90;;;;;;10620700;27;20066;-60
2024/02/04 16:13:52;;;;;;;75.00;10.80;;;10.10;99.90;;;;;;10629729;27;20046;-60
2024/02/04 16:18:54;;;;;;;87.85;11.80;;;9.90;99.90;;;;;;10616129;27;20042;-59
2024/02/04 16:23:57;;;;;;;63.90;9.40;;;9.70;99.90;;;;;;10622422;27;20754;-59
2024/02/04 16:28:59;;;;;;;;;;;9.80;99.90;;;;;;10620510;27;20598;-59
2024/02/04 16:34:01;;;;;;;65.22;8.77;;;9.50;99.90;;;;;;10622082;27;19954;-59
2024/02/04 16:39:05;;;;;;;84.88;13.68;;;9.80;99.90;;;;;;10619383;27;20074;-59
2024/02/04 16:44:07;;;;;;;54.85;9.75;;;9.70;99.90;;;;;;10616607;27;20039;-58
2024/02/04 16:49:11;;;;;;;58.30;10.52;;;9.80;99.90;;;;;;10614609;27;20691;-59
2024/02/04 16:54:17;;;;;;;76.60;13.68;;;9.80;99.90;;;;;;10628583;27;20038;-60
2024/02/04 16:59:19;;;;;;;65.53;8.45;;;9.80;99.90;;;;;;10613349;27;20178;-58
2024/02/04 17:04:22;;;;;;;63.78;10.45;;;9.70;99.90;;;;;;10618141;27;20178;-58
2024/02/04 17:09:26;;;;;;;49.47;7.95;;;9.80;99.90;;;;;;10617384;27;20564;-61
2024/02/04 17:14:29;;;;;;;63.70;9.63;;;9.80;99.90;;;;;;10610033;27;20674;-59
2024/02/04 17:19:40;;;;;;;61.72;7.82;;;9.80;99.90;;;;;;10622184;27;20053;-59
2024/02/04 17:24:49;;;;;;;66.10;12.32;;;9.80;99.90;;;;;;10623025;27;20589;-61
2024/02/04 17:29:55;;;;;;;58.55;11.02;;;9.90;99.90;;;;;;10625877;27;20050;-60
2024/02/04 17:34:58;;;;;;;67.55;9.38;;;9.60;99.90;;;;;;10622793;27;20051;-59
2024/02/04 17:40:02;;;;;;;60.40;8.13;;;9.90;99.90;;;;;;10622190;27;20054;-60
2024/02/04 17:45:08;;;;;;;58.15;8.95;;;9.90;99.90;;;;;;10624513;27;20433;-59
2024/02/04 17:50:10;;;;;;;67.97;12.93;;;9.80;99.90;;;;;;10624897;27;20398;-59
2024/02/04 17:55:14;;;;;;;59.75;7.88;;;9.90;99.90;;;;;;10615727;27;20231;-57
2024/02/04 18:00:17;;;;;;;71.85;9.15;;;10.00;99.90;;;;;;10622989;27;20093;-57
2024/02/04 18:05:19;;;;;;;43.70;7.10;;;9.90;99.90;;;;;;10617072;27;20100;-58
2024/02/04 18:10:23;;;;;;;62.25;8.77;;;9.80;99.90;;;;;;10623111;27;20118;-61
2024/02/04 18:15:25;;;;;;;56.72;7.32;;;10.00;99.90;;;;;;10619334;27;20055;-60
2024/02/04 18:20:27;;;;;;;68.65;11.82;;;10.10;99.90;;;;;;10619115;27;20078;-58
2024/02/04 18:25:30;;;;;;;48.70;8.32;;;9.90;99.90;;;;;;10604428;27;20051;-60
2024/02/04 18:30:33;;;;;;;59.95;9.85;;;10.00;99.90;;;;;;10612794;27;20561;-61
2024/02/04 18:35:36;;;;;;;61.07;9.93;;;9.80;99.90;;;;;;10607051;27;20153;-60
2024/02/04 18:40:39;;;;;;;45.20;7.38;;;9.70;99.90;;;;;;10617055;27;20476;-60
2024/02/04 18:45:41;;;;;;;37.67;5.70;;;9.80;99.90;;;;;;10611052;27;20070;-59
2024/02/04 18:50:43;;;;;;;48.47;7.95;;;9.80;99.90;;;;;;10618647;27;20435;-58
2024/02/04 18:55:49;;;;;;;50.75;8.35;;;9.80;99.90;;;;;;10611715;27;20066;-59
2024/02/04 19:00:53;;;;;;;44.13;8.73;;;9.80;99.90;;;;;;10611663;27;22505;-58
2024/02/04 19:05:56;;;;;;;47.38;8.98;;;9.90;99.90;;;;;;10613837;27;20038;-60
2024/02/04 19:11:02;;;;;;;50.22;8.23;;;9.80;99.90;;;;;;10615382;27;20050;-64
2024/02/04 19:16:05;;;;;;;54.08;10.90;;;9.80;99.90;;;;;;10618011;27;20050;-60
2024/02/04 19:21:07;;;;;;;62.33;9.50;;;9.70;99.90;;;;;;10619307;27;20129;-60
2024/02/04 19:26:13;;;;;;;62.57;10.03;;;9.60;99.90;;;;;;10622129;27;20075;-61
2024/02/04 19:31:15;;;;;;;46.38;7.32;;;9.80;99.90;;;;;;10619903;27;23013;-61
2024/02/04 19:36:18;;;;;;;63.33;8.95;;;10.10;99.90;;;;;;10620954;27;20931;-61
2024/02/04 19:41:22;;;;;;;47.20;9.05;;;9.80;99.90;;;;;;10615432;27;20837;-61
2024/02/04 19:46:25;;;;;;;68.15;10.45;;;9.90;99.90;;;;;;10615461;27;20161;-61
2024/02/04 19:51:27;;;;;;;75.35;13.82;;;9.80;99.90;;;;;;10617954;27;20940;-60
2024/02/04 19:56:30;;;;;;;62.97;7.32;;;9.80;99.90;;;;;;10618369;27;20054;-60
2024/02/04 20:01:34;;;;;;;67.53;12.32;;;9.80;99.90;;;;;;10612437;27;20054;-60
2024/02/04 20:06:36;;;;;;;39.33;6.85;;;9.60;99.90;;;;;;10613596;27;20084;-59
2024/02/04 20:11:40;;;;;;;80.63;14.00;;;9.90;99.90;;;;;;10610865;27;20170;-63
2024/02/04 20:16:42;;;;;;;45.42;8.00;;;9.80;99.90;;;;;;10610428;27;20614;-61
2024/02/04 20:21:44;;;;;;;59.33;8.20;;;10.10;99.90;;;;;;10604672;27;20058;-61
2024/02/04 20:26:47;;;;;;;63.72;11.05;;;9.90;99.90;;;;;;10614835;27;20148;-59
2024/02/04 20:31:51;;;;;;;52.55;9.27;;;9.70;99.90;;;;;;10599442;27;20114;-60
2024/02/04 20:36:53;;;;;;;45.47;9.07;;;9.90;99.90;;;;;;10610363;27;20061;-60
2024/02/04 20:41:58;;;;;;;59.97;12.00;;;10.00;99.90;;;;;;10613727;27;20061;-60
2024/02/04 20:46:59;;;;;;;43.40;8.07;;;10.10;99.90;;;;;;10614386;27;20050;-62
2024/02/04 20:52:02;;;;;;;51.83;10.38;;;10.20;99.90;;;;;;10617366;27;20069;-59
2024/02/04 20:57:08;;;;;;;66.07;11.20;;;9.90;99.90;;;;;;10619736;27;20219;-59
2024/02/04 21:02:10;;;;;;;55.00;10.43;;;10.10;99.90;;;;;;10625311;27;20106;-60
2024/02/04 21:07:12;;;;;;;64.35;14.20;;;9.90;99.90;;;;;;10626847;27;20065;-60
2024/02/04 21:12:15;;;;;;;46.20;5.93;;;9.90;99.90;;;;;;10620864;27;20691;-62
2024/02/04 21:17:19;;;;;;;69.30;13.70;;;9.90;99.90;;;;;;10623276;27;20525;-60
2024/02/04 21:22:21;;;;;;;59.47;9.10;;;9.90;99.90;;;;;;10627849;27;20236;-60
2024/02/04 21:27:24;;;;;;;69.57;11.32;;;9.80;99.90;;;;;;10630499;27;20047;-62
2024/02/04 21:32:28;;;;;;;61.78;9.68;;;9.70;99.90;;;;;;10628736;27;20457;-62
2024/02/04 21:37:30;;;;;;;59.88;10.63;;;10.00;99.90;;;;;;10621035;27;20133;-61
2024/02/04 21:42:35;;;;;;;57.53;10.73;;;9.90;99.90;;;;;;10629844;27;20049;-60
2024/02/04 21:47:37;;;;;;;62.83;10.25;;;10.10;99.90;;;;;;10626761;27;20058;-60
2024/02/04 21:52:39;;;;;;;61.33;11.07;;;10.10;99.90;;;;;;10627639;27;20089;-62
2024/02/04 21:57:43;;;;;;;48.00;7.47;;;9.90;99.90;;;;;;10628897;27;20107;-62
2024/02/04 22:02:45;;;;;;;55.38;11.52;;;9.90;99.90;;;;;;10633524;27;20489;-61
2024/02/04 22:07:47;;;;;;;51.33;8.13;;;9.90;99.90;;;;;;10626069;27;20414;-61
2024/02/04 22:12:50;;;;;;;45.95;8.15;;;9.90;99.90;;;;;;10629990;27;20215;-61
2024/02/04 22:17:52;;;;;;;61.05;10.27;;;9.70;99.90;;;;;;10631082;27;20043;-62
2024/02/04 22:22:54;;;;;;;55.88;10.27;;;9.80;99.90;;;;;;10631015;27;20054;-61
2024/02/04 22:27:58;;;;;;;55.45;9.82;;;9.70;99.90;;;;;;10641443;27;20073;-59
2024/02/04 22:33:00;;;;;;;57.25;11.07;;;9.70;99.90;;;;;;10630112;27;20050;-62
2024/02/04 22:38:02;;;;;;;60.20;11.25;;;9.60;99.90;;;;;;10630680;27;20538;-61
2024/02/04 22:43:06;;;;;;;56.63;9.80;;;9.50;99.90;;;;;;10625472;27;20151;-62
2024/02/04 22:48:08;;;;;;;74.07;11.88;;;9.70;99.90;;;;;;10617733;27;20046;-62
2024/02/04 22:53:10;;;;;;;46.35;8.32;;;9.60;99.90;;;;;;10623455;27;20597;-62
2024/02/04 22:58:14;;;;;;;82.32;11.02;;;9.60;99.90;;;;;;10627093;27;20166;-62
2024/02/04 23:03:16;;;;;;;66.13;12.30;;;9.40;99.90;;;;;;10629375;27;20084;-61
2024/02/04 23:08:18;;;;;;;56.17;9.27;;;9.60;99.90;;;;;;10631577;27;20581;-62
2024/02/04 23:13:21;;;;;;;53.75;9.10;;;9.40;99.90;;;;;;10620150;27;20053;-63
2024/02/04 23:18:24;;;;;;;64.88;9.50;;;9.50;99.90;;;;;;10625357;27;20118;-62
2024/02/04 23:23:26;;;;;;;61.45;11.98;;;9.40;99.90;;;;;;10624636;27;20054;-62
2024/02/04 23:28:30;;;;;;;70.90;11.30;;;9.40;99.90;;;;;;10622009;27;20046;-61
2024/02/04 23:33:32;;;;;;;63.70;9.68;;;9.20;99.90;;;;;;10622943;27;20057;-62
2024/02/04 23:38:34;;;;;;;73.90;11.65;;;9.30;99.90;;;;;;10614045;27;20169;-62
2024/02/04 23:43:38;;;;;;;81.07;12.23;;;9.40;99.90;;;;;;10628332;27;20046;-63
2024/02/04 23:48:40;;;;;;;57.63;8.88;;;9.40;99.90;;;;;;10624212;27;20055;-62
2024/02/04 23:53:42;;;;;;;65.80;10.70;;;9.40;99.90;;;;;;10625917;27;20095;-62
2024/02/04 23:58:45;;;;;;;62.50;9.80;;;9.40;99.90;;;;;;10622184;27;20107;-62
